sensor_id;sensor_type;location;lat;lon;timestamp;temperature;humidity
49236;DHT22;35067;48.134;8.378;2023-07-13T00:00:52;17.20;93.80
49236;DHT22;35067;48.134;8.378;2023-07-13T00:01:53;17.10;93.70
49236;DHT22;35067;48.134;8.378;2023-07-13T00:02:54;17.10;93.10
49236;DHT22;35067;48.134;8.378;2023-07-13T00:03:56;17.00;92.70
49236;DHT22;35067;48.134;8.378;2023-07-13T00:05:00;17.00;92.80
49236;DHT22;35067;48.134;8.378;2023-07-13T00:06:01;17.00;92.50
49236;DHT22;35067;48.134;8.378;2023-07-13T00:07:04;17.00;92.50
49236;DHT22;35067;48.134;8.378;2023-07-13T00:08:05;17.00;92.00
49236;DHT22;35067;48.134;8.378;2023-07-13T00:09:06;17.00;92.30
49236;DHT22;35067;48.134;8.378;2023-07-13T00:10:08;17.00;92.30
49236;DHT22;35067;48.134;8.378;2023-07-13T00:11:09;16.90;93.00
49236;DHT22;35067;48.134;8.378;2023-07-13T00:12:23;17.00;92.50
49236;DHT22;35067;48.134;8.378;2023-07-13T00:13:30;17.00;91.90
49236;DHT22;35067;48.134;8.378;2023-07-13T00:14:31;17.00;92.00
49236;DHT22;35067;48.134;8.378;2023-07-13T00:15:31;17.00;91.70
49236;DHT22;35067;48.134;8.378;2023-07-13T00:16:34;16.90;91.50
49236;DHT22;35067;48.134;8.378;2023-07-13T00:17:36;16.80;91.50
49236;DHT22;35067;48.134;8.378;2023-07-13T00:18:38;16.70;92.50
49236;DHT22;35067;48.134;8.378;2023-07-13T00:19:39;16.70;92.70
49236;DHT22;35067;48.134;8.378;2023-07-13T00:20:40;16.60;91.90
49236;DHT22;35067;48.134;8.378;2023-07-13T00:21:42;16.60;92.20
49236;DHT22;35067;48.134;8.378;2023-07-13T00:22:44;16.50;92.60
49236;DHT22;35067;48.134;8.378;2023-07-13T00:23:45;16.60;91.80
49236;DHT22;35067;48.134;8.378;2023-07-13T00:24:45;16.60;91.90
49236;DHT22;35067;48.134;8.378;2023-07-13T00:25:46;16.60;91.70
49236;DHT22;35067;48.134;8.378;2023-07-13T00:26:47;16.60;92.10
49236;DHT22;35067;48.134;8.378;2023-07-13T00:27:48;16.60;90.80
49236;DHT22;35067;48.134;8.378;2023-07-13T00:28:49;16.60;91.00
49236;DHT22;35067;48.134;8.378;2023-07-13T00:29:50;16.60;90.20
49236;DHT22;35067;48.134;8.378;2023-07-13T00:30:50;16.50;89.60
49236;DHT22;35067;48.134;8.378;2023-07-13T00:31:52;16.60;90.10
49236;DHT22;35067;48.134;8.378;2023-07-13T00:32:53;16.70;89.40
49236;DHT22;35067;48.134;8.378;2023-07-13T00:33:54;16.80;88.80
49236;DHT22;35067;48.134;8.378;2023-07-13T00:34:54;16.80;87.40
49236;DHT22;35067;48.134;8.378;2023-07-13T00:35:56;16.70;88.00
49236;DHT22;35067;48.134;8.378;2023-07-13T00:36:57;16.70;89.00
49236;DHT22;35067;48.134;8.378;2023-07-13T00:37:58;16.80;87.30
49236;DHT22;35067;48.134;8.378;2023-07-13T00:38:59;17.00;85.50
49236;DHT22;35067;48.134;8.378;2023-07-13T00:40:00;16.90;85.30
49236;DHT22;35067;48.134;8.378;2023-07-13T00:41:01;16.80;85.00
49236;DHT22;35067;48.134;8.378;2023-07-13T00:42:04;16.90;85.10
49236;DHT22;35067;48.134;8.378;2023-07-13T00:43:15;16.90;85.40
49236;DHT22;35067;48.134;8.378;2023-07-13T00:44:19;16.80;85.30
49236;DHT22;35067;48.134;8.378;2023-07-13T00:46:25;16.70;85.50
49236;DHT22;35067;48.134;8.378;2023-07-13T00:47:27;16.60;85.30
49236;DHT22;35067;48.134;8.378;2023-07-13T00:48:31;16.60;86.00
49236;DHT22;35067;48.134;8.378;2023-07-13T00:49:35;16.70;86.10
49236;DHT22;35067;48.134;8.378;2023-07-13T00:50:37;16.80;85.70
49236;DHT22;35067;48.134;8.378;2023-07-13T00:51:47;16.80;86.20
49236;DHT22;35067;48.134;8.378;2023-07-13T00:52:53;16.80;84.30
49236;DHT22;35067;48.134;8.378;2023-07-13T00:53:59;16.80;85.20
49236;DHT22;35067;48.134;8.378;2023-07-13T00:55:01;16.80;82.70
49236;DHT22;35067;48.134;8.378;2023-07-13T00:56:03;16.80;82.90
49236;DHT22;35067;48.134;8.378;2023-07-13T00:57:07;16.70;82.70
49236;DHT22;35067;48.134;8.378;2023-07-13T00:58:09;16.70;83.60
49236;DHT22;35067;48.134;8.378;2023-07-13T00:59:11;16.60;84.20
49236;DHT22;35067;48.134;8.378;2023-07-13T01:00:14;16.70;84.40
49236;DHT22;35067;48.134;8.378;2023-07-13T01:01:15;16.70;83.90
49236;DHT22;35067;48.134;8.378;2023-07-13T01:02:16;16.60;83.70
49236;DHT22;35067;48.134;8.378;2023-07-13T01:03:19;16.60;84.10
49236;DHT22;35067;48.134;8.378;2023-07-13T01:04:20;16.60;82.60
49236;DHT22;35067;48.134;8.378;2023-07-13T01:05:24;16.60;83.40
49236;DHT22;35067;48.134;8.378;2023-07-13T01:06:25;16.60;84.00
49236;DHT22;35067;48.134;8.378;2023-07-13T01:07:27;16.60;84.50
49236;DHT22;35067;48.134;8.378;2023-07-13T01:08:29;16.60;84.00
49236;DHT22;35067;48.134;8.378;2023-07-13T01:09:30;16.60;83.00
49236;DHT22;35067;48.134;8.378;2023-07-13T01:10:30;16.50;81.30
49236;DHT22;35067;48.134;8.378;2023-07-13T01:11:39;16.40;82.60
49236;DHT22;35067;48.134;8.378;2023-07-13T01:12:41;16.40;82.70
49236;DHT22;35067;48.134;8.378;2023-07-13T01:13:42;16.40;83.70
49236;DHT22;35067;48.134;8.378;2023-07-13T01:14:43;16.30;83.50
49236;DHT22;35067;48.134;8.378;2023-07-13T01:15:46;16.30;82.40
49236;DHT22;35067;48.134;8.378;2023-07-13T01:16:49;16.20;84.00
49236;DHT22;35067;48.134;8.378;2023-07-13T01:17:50;16.20;83.70
49236;DHT22;35067;48.134;8.378;2023-07-13T01:18:51;16.10;84.80
49236;DHT22;35067;48.134;8.378;2023-07-13T01:19:52;16.20;84.10
49236;DHT22;35067;48.134;8.378;2023-07-13T01:21:02;16.20;84.60
49236;DHT22;35067;48.134;8.378;2023-07-13T01:22:16;16.20;85.10
49236;DHT22;35067;48.134;8.378;2023-07-13T01:23:19;16.20;84.30
49236;DHT22;35067;48.134;8.378;2023-07-13T01:24:20;16.10;83.40
49236;DHT22;35067;48.134;8.378;2023-07-13T01:25:20;16.10;83.70
49236;DHT22;35067;48.134;8.378;2023-07-13T01:26:22;16.10;84.10
49236;DHT22;35067;48.134;8.378;2023-07-13T01:27:25;16.10;83.50
49236;DHT22;35067;48.134;8.378;2023-07-13T01:28:27;16.10;83.60
49236;DHT22;35067;48.134;8.378;2023-07-13T01:29:31;16.10;83.70
49236;DHT22;35067;48.134;8.378;2023-07-13T01:30:33;16.10;83.10
49236;DHT22;35067;48.134;8.378;2023-07-13T01:31:34;16.10;82.70
49236;DHT22;35067;48.134;8.378;2023-07-13T01:32:35;16.10;83.10
49236;DHT22;35067;48.134;8.378;2023-07-13T01:33:40;16.10;83.10
49236;DHT22;35067;48.134;8.378;2023-07-13T01:34:41;16.00;83.00
49236;DHT22;35067;48.134;8.378;2023-07-13T01:35:44;15.90;83.90
49236;DHT22;35067;48.134;8.378;2023-07-13T01:36:45;16.00;83.80
49236;DHT22;35067;48.134;8.378;2023-07-13T01:37:46;15.90;84.00
49236;DHT22;35067;48.134;8.378;2023-07-13T01:38:47;15.90;83.40
49236;DHT22;35067;48.134;8.378;2023-07-13T01:39:48;16.00;83.80
49236;DHT22;35067;48.134;8.378;2023-07-13T01:40:48;15.90;84.00
49236;DHT22;35067;48.134;8.378;2023-07-13T01:41:49;16.00;83.40
49236;DHT22;35067;48.134;8.378;2023-07-13T01:42:50;16.00;82.90
49236;DHT22;35067;48.134;8.378;2023-07-13T01:43:51;16.00;83.40
49236;DHT22;35067;48.134;8.378;2023-07-13T01:44:51;16.00;83.00
49236;DHT22;35067;48.134;8.378;2023-07-13T01:45:52;15.90;83.40
49236;DHT22;35067;48.134;8.378;2023-07-13T01:46:53;15.90;83.30
49236;DHT22;35067;48.134;8.378;2023-07-13T01:47:54;16.00;83.40
49236;DHT22;35067;48.134;8.378;2023-07-13T01:48:55;15.90;83.30
49236;DHT22;35067;48.134;8.378;2023-07-13T01:49:56;15.80;84.40
49236;DHT22;35067;48.134;8.378;2023-07-13T01:50:57;15.80;86.70
49236;DHT22;35067;48.134;8.378;2023-07-13T01:51:58;15.90;85.60
49236;DHT22;35067;48.134;8.378;2023-07-13T01:52:59;16.00;84.60
49236;DHT22;35067;48.134;8.378;2023-07-13T01:54:01;16.10;83.50
49236;DHT22;35067;48.134;8.378;2023-07-13T01:55:01;16.10;83.40
49236;DHT22;35067;48.134;8.378;2023-07-13T01:56:02;16.10;82.60
49236;DHT22;35067;48.134;8.378;2023-07-13T01:57:03;16.10;82.50
49236;DHT22;35067;48.134;8.378;2023-07-13T01:58:04;16.20;82.10
49236;DHT22;35067;48.134;8.378;2023-07-13T01:59:05;16.10;82.50
49236;DHT22;35067;48.134;8.378;2023-07-13T02:00:08;16.10;82.30
49236;DHT22;35067;48.134;8.378;2023-07-13T02:01:10;16.10;82.50
49236;DHT22;35067;48.134;8.378;2023-07-13T02:02:11;16.10;83.10
49236;DHT22;35067;48.134;8.378;2023-07-13T02:03:12;16.20;82.40
49236;DHT22;35067;48.134;8.378;2023-07-13T02:04:19;16.20;82.00
49236;DHT22;35067;48.134;8.378;2023-07-13T02:05:22;16.30;83.10
49236;DHT22;35067;48.134;8.378;2023-07-13T02:06:22;16.30;82.90
49236;DHT22;35067;48.134;8.378;2023-07-13T02:07:23;16.30;82.50
49236;DHT22;35067;48.134;8.378;2023-07-13T02:08:24;16.30;82.50
49236;DHT22;35067;48.134;8.378;2023-07-13T02:09:25;16.30;82.30
49236;DHT22;35067;48.134;8.378;2023-07-13T02:10:28;16.20;81.80
49236;DHT22;35067;48.134;8.378;2023-07-13T02:11:29;16.20;83.00
49236;DHT22;35067;48.134;8.378;2023-07-13T02:12:33;16.20;83.20
49236;DHT22;35067;48.134;8.378;2023-07-13T02:13:35;16.10;83.10
49236;DHT22;35067;48.134;8.378;2023-07-13T02:14:35;16.10;82.90
49236;DHT22;35067;48.134;8.378;2023-07-13T02:15:40;16.10;83.10
49236;DHT22;35067;48.134;8.378;2023-07-13T02:16:41;16.10;83.10
49236;DHT22;35067;48.134;8.378;2023-07-13T02:17:42;16.10;82.80
49236;DHT22;35067;48.134;8.378;2023-07-13T02:18:42;16.00;82.90
49236;DHT22;35067;48.134;8.378;2023-07-13T02:19:44;16.00;84.90
49236;DHT22;35067;48.134;8.378;2023-07-13T02:20:45;16.00;86.20
49236;DHT22;35067;48.134;8.378;2023-07-13T02:21:47;16.00;88.30
49236;DHT22;35067;48.134;8.378;2023-07-13T02:22:48;15.90;90.90
49236;DHT22;35067;48.134;8.378;2023-07-13T02:23:49;15.90;90.70
49236;DHT22;35067;48.134;8.378;2023-07-13T02:24:50;15.90;91.60
49236;DHT22;35067;48.134;8.378;2023-07-13T02:25:58;15.80;92.20
49236;DHT22;35067;48.134;8.378;2023-07-13T02:27:00;15.70;93.40
49236;DHT22;35067;48.134;8.378;2023-07-13T02:28:03;15.70;92.50
49236;DHT22;35067;48.134;8.378;2023-07-13T02:29:03;15.60;92.80
49236;DHT22;35067;48.134;8.378;2023-07-13T02:30:05;15.60;92.50
49236;DHT22;35067;48.134;8.378;2023-07-13T02:31:12;15.60;92.00
49236;DHT22;35067;48.134;8.378;2023-07-13T02:32:14;15.60;91.80
49236;DHT22;35067;48.134;8.378;2023-07-13T02:33:15;15.60;92.10
49236;DHT22;35067;48.134;8.378;2023-07-13T02:34:16;15.50;92.50
49236;DHT22;35067;48.134;8.378;2023-07-13T02:35:16;15.50;92.50
49236;DHT22;35067;48.134;8.378;2023-07-13T02:36:17;15.60;92.90
49236;DHT22;35067;48.134;8.378;2023-07-13T02:37:19;15.60;92.50
49236;DHT22;35067;48.134;8.378;2023-07-13T02:38:19;15.60;92.40
49236;DHT22;35067;48.134;8.378;2023-07-13T02:39:20;15.60;91.90
49236;DHT22;35067;48.134;8.378;2023-07-13T02:40:21;15.60;91.70
49236;DHT22;35067;48.134;8.378;2023-07-13T02:41:22;15.60;91.70
49236;DHT22;35067;48.134;8.378;2023-07-13T02:42:23;15.60;92.50
49236;DHT22;35067;48.134;8.378;2023-07-13T02:43:24;15.60;92.30
49236;DHT22;35067;48.134;8.378;2023-07-13T02:44:24;15.60;92.20
49236;DHT22;35067;48.134;8.378;2023-07-13T02:45:25;15.60;92.50
49236;DHT22;35067;48.134;8.378;2023-07-13T02:46:28;15.60;92.00
49236;DHT22;35067;48.134;8.378;2023-07-13T02:47:33;15.60;92.10
49236;DHT22;35067;48.134;8.378;2023-07-13T02:48:34;15.60;92.10
49236;DHT22;35067;48.134;8.378;2023-07-13T02:49:35;15.50;92.90
49236;DHT22;35067;48.134;8.378;2023-07-13T02:50:37;15.40;93.00
49236;DHT22;35067;48.134;8.378;2023-07-13T02:51:38;15.40;92.50
49236;DHT22;35067;48.134;8.378;2023-07-13T02:52:38;15.60;92.40
49236;DHT22;35067;48.134;8.378;2023-07-13T02:53:39;15.60;92.80
49236;DHT22;35067;48.134;8.378;2023-07-13T02:54:40;15.50;93.30
49236;DHT22;35067;48.134;8.378;2023-07-13T02:55:40;15.50;93.80
49236;DHT22;35067;48.134;8.378;2023-07-13T02:56:41;15.40;93.80
49236;DHT22;35067;48.134;8.378;2023-07-13T02:57:43;15.50;93.70
49236;DHT22;35067;48.134;8.378;2023-07-13T02:58:44;15.50;93.60
49236;DHT22;35067;48.134;8.378;2023-07-13T02:59:45;15.40;93.50
49236;DHT22;35067;48.134;8.378;2023-07-13T03:00:48;15.40;93.70
49236;DHT22;35067;48.134;8.378;2023-07-13T03:01:50;15.30;93.60
49236;DHT22;35067;48.134;8.378;2023-07-13T03:02:51;15.40;94.40
49236;DHT22;35067;48.134;8.378;2023-07-13T03:03:53;15.30;94.80
49236;DHT22;35067;48.134;8.378;2023-07-13T03:04:55;15.30;94.80
49236;DHT22;35067;48.134;8.378;2023-07-13T03:06:00;15.40;94.70
49236;DHT22;35067;48.134;8.378;2023-07-13T03:07:03;15.40;94.90
49236;DHT22;35067;48.134;8.378;2023-07-13T03:08:05;15.50;94.50
49236;DHT22;35067;48.134;8.378;2023-07-13T03:09:06;15.50;93.90
49236;DHT22;35067;48.134;8.378;2023-07-13T03:10:07;15.40;93.30
49236;DHT22;35067;48.134;8.378;2023-07-13T03:11:15;15.50;92.90
49236;DHT22;35067;48.134;8.378;2023-07-13T03:12:17;15.50;93.40
49236;DHT22;35067;48.134;8.378;2023-07-13T03:13:17;15.30;93.90
49236;DHT22;35067;48.134;8.378;2023-07-13T03:14:18;15.20;94.30
49236;DHT22;35067;48.134;8.378;2023-07-13T03:15:19;15.30;94.10
49236;DHT22;35067;48.134;8.378;2023-07-13T03:16:20;15.30;95.20
49236;DHT22;35067;48.134;8.378;2023-07-13T03:17:21;15.30;95.10
49236;DHT22;35067;48.134;8.378;2023-07-13T03:18:21;15.30;94.70
49236;DHT22;35067;48.134;8.378;2023-07-13T03:19:22;15.30;94.90
49236;DHT22;35067;48.134;8.378;2023-07-13T03:20:23;15.40;94.70
49236;DHT22;35067;48.134;8.378;2023-07-13T03:21:24;15.40;94.70
49236;DHT22;35067;48.134;8.378;2023-07-13T03:22:25;15.40;94.70
49236;DHT22;35067;48.134;8.378;2023-07-13T03:23:26;15.40;94.70
49236;DHT22;35067;48.134;8.378;2023-07-13T03:24:27;15.40;94.80
49236;DHT22;35067;48.134;8.378;2023-07-13T03:25:28;15.40;94.60
49236;DHT22;35067;48.134;8.378;2023-07-13T03:26:29;15.40;94.20
49236;DHT22;35067;48.134;8.378;2023-07-13T03:27:31;15.40;94.00
49236;DHT22;35067;48.134;8.378;2023-07-13T03:28:33;15.30;93.80
49236;DHT22;35067;48.134;8.378;2023-07-13T03:29:34;15.30;93.80
49236;DHT22;35067;48.134;8.378;2023-07-13T03:30:35;15.20;94.60
49236;DHT22;35067;48.134;8.378;2023-07-13T03:31:36;15.30;94.10
49236;DHT22;35067;48.134;8.378;2023-07-13T03:32:37;15.30;94.00
49236;DHT22;35067;48.134;8.378;2023-07-13T03:33:38;15.30;94.00
49236;DHT22;35067;48.134;8.378;2023-07-13T03:34:39;15.30;93.80
49236;DHT22;35067;48.134;8.378;2023-07-13T03:35:40;15.40;93.80
49236;DHT22;35067;48.134;8.378;2023-07-13T03:36:41;15.50;93.70
49236;DHT22;35067;48.134;8.378;2023-07-13T03:37:42;15.50;93.50
49236;DHT22;35067;48.134;8.378;2023-07-13T03:38:43;15.50;93.70
49236;DHT22;35067;48.134;8.378;2023-07-13T03:39:43;15.50;93.90
49236;DHT22;35067;48.134;8.378;2023-07-13T03:40:44;15.50;94.10
49236;DHT22;35067;48.134;8.378;2023-07-13T03:41:45;15.60;93.80
49236;DHT22;35067;48.134;8.378;2023-07-13T03:42:46;15.60;94.30
49236;DHT22;35067;48.134;8.378;2023-07-13T03:43:46;15.40;94.60
49236;DHT22;35067;48.134;8.378;2023-07-13T03:44:50;15.30;94.50
49236;DHT22;35067;48.134;8.378;2023-07-13T03:45:52;15.30;94.70
49236;DHT22;35067;48.134;8.378;2023-07-13T03:46:53;15.40;94.40
49236;DHT22;35067;48.134;8.378;2023-07-13T03:47:54;15.40;94.30
49236;DHT22;35067;48.134;8.378;2023-07-13T03:48:56;15.50;94.10
49236;DHT22;35067;48.134;8.378;2023-07-13T03:49:57;15.50;93.80
49236;DHT22;35067;48.134;8.378;2023-07-13T03:50:59;15.60;93.70
49236;DHT22;35067;48.134;8.378;2023-07-13T03:52:00;15.60;93.70
49236;DHT22;35067;48.134;8.378;2023-07-13T03:53:02;15.60;94.30
49236;DHT22;35067;48.134;8.378;2023-07-13T03:54:03;15.60;94.00
49236;DHT22;35067;48.134;8.378;2023-07-13T03:55:04;15.60;94.00
49236;DHT22;35067;48.134;8.378;2023-07-13T03:56:06;15.60;94.10
49236;DHT22;35067;48.134;8.378;2023-07-13T03:57:08;15.60;94.10
49236;DHT22;35067;48.134;8.378;2023-07-13T03:58:34;15.70;94.00
49236;DHT22;35067;48.134;8.378;2023-07-13T03:59:39;15.80;92.90
49236;DHT22;35067;48.134;8.378;2023-07-13T04:00:39;15.80;92.70
49236;DHT22;35067;48.134;8.378;2023-07-13T04:01:40;15.70;93.50
49236;DHT22;35067;48.134;8.378;2023-07-13T04:02:41;15.70;94.00
49236;DHT22;35067;48.134;8.378;2023-07-13T04:03:42;15.70;94.00
49236;DHT22;35067;48.134;8.378;2023-07-13T04:04:44;15.70;94.10
49236;DHT22;35067;48.134;8.378;2023-07-13T04:05:45;15.80;94.00
49236;DHT22;35067;48.134;8.378;2023-07-13T04:06:46;15.80;93.90
49236;DHT22;35067;48.134;8.378;2023-07-13T04:07:47;15.60;94.60
49236;DHT22;35067;48.134;8.378;2023-07-13T04:08:50;15.40;95.20
49236;DHT22;35067;48.134;8.378;2023-07-13T04:09:51;15.30;95.70
49236;DHT22;35067;48.134;8.378;2023-07-13T04:10:53;15.30;95.20
49236;DHT22;35067;48.134;8.378;2023-07-13T04:11:55;15.40;94.80
49236;DHT22;35067;48.134;8.378;2023-07-13T04:12:56;15.50;95.00
49236;DHT22;35067;48.134;8.378;2023-07-13T04:13:57;15.50;94.30
49236;DHT22;35067;48.134;8.378;2023-07-13T04:14:58;15.50;94.20
49236;DHT22;35067;48.134;8.378;2023-07-13T04:15:58;15.60;94.20
49236;DHT22;35067;48.134;8.378;2023-07-13T04:16:59;15.70;94.60
49236;DHT22;35067;48.134;8.378;2023-07-13T04:18:00;15.60;94.30
49236;DHT22;35067;48.134;8.378;2023-07-13T04:19:02;15.70;94.80
49236;DHT22;35067;48.134;8.378;2023-07-13T04:20:03;15.70;95.20
49236;DHT22;35067;48.134;8.378;2023-07-13T04:21:04;15.70;95.30
49236;DHT22;35067;48.134;8.378;2023-07-13T04:22:05;15.60;95.80
49236;DHT22;35067;48.134;8.378;2023-07-13T04:23:06;15.60;95.50
49236;DHT22;35067;48.134;8.378;2023-07-13T04:24:06;15.50;95.70
49236;DHT22;35067;48.134;8.378;2023-07-13T04:25:08;15.60;95.50
49236;DHT22;35067;48.134;8.378;2023-07-13T04:26:09;15.70;94.80
49236;DHT22;35067;48.134;8.378;2023-07-13T04:27:09;15.80;95.00
49236;DHT22;35067;48.134;8.378;2023-07-13T04:28:11;15.80;94.20
49236;DHT22;35067;48.134;8.378;2023-07-13T04:29:12;15.90;94.30
49236;DHT22;35067;48.134;8.378;2023-07-13T04:30:13;15.90;94.40
49236;DHT22;35067;48.134;8.378;2023-07-13T04:31:14;15.90;94.20
49236;DHT22;35067;48.134;8.378;2023-07-13T04:32:15;16.00;94.20
49236;DHT22;35067;48.134;8.378;2023-07-13T04:33:16;16.00;94.20
49236;DHT22;35067;48.134;8.378;2023-07-13T04:34:17;16.10;94.00
49236;DHT22;35067;48.134;8.378;2023-07-13T04:35:19;16.10;94.10
49236;DHT22;35067;48.134;8.378;2023-07-13T04:36:21;16.10;93.90
49236;DHT22;35067;48.134;8.378;2023-07-13T04:37:21;16.00;93.80
49236;DHT22;35067;48.134;8.378;2023-07-13T04:38:24;16.00;94.20
49236;DHT22;35067;48.134;8.378;2023-07-13T04:39:26;16.10;94.50
49236;DHT22;35067;48.134;8.378;2023-07-13T04:40:27;16.10;94.40
49236;DHT22;35067;48.134;8.378;2023-07-13T04:41:28;16.10;94.40
49236;DHT22;35067;48.134;8.378;2023-07-13T04:42:29;16.20;94.40
49236;DHT22;35067;48.134;8.378;2023-07-13T04:43:31;16.20;94.50
49236;DHT22;35067;48.134;8.378;2023-07-13T04:44:32;16.20;94.30
49236;DHT22;35067;48.134;8.378;2023-07-13T04:45:35;16.20;94.30
49236;DHT22;35067;48.134;8.378;2023-07-13T04:46:35;16.20;94.10
49236;DHT22;35067;48.134;8.378;2023-07-13T04:47:36;16.20;94.20
49236;DHT22;35067;48.134;8.378;2023-07-13T04:48:37;16.20;94.50
49236;DHT22;35067;48.134;8.378;2023-07-13T04:49:38;16.10;94.20
49236;DHT22;35067;48.134;8.378;2023-07-13T04:50:39;16.20;94.10
49236;DHT22;35067;48.134;8.378;2023-07-13T04:51:40;16.30;94.10
49236;DHT22;35067;48.134;8.378;2023-07-13T04:52:41;16.30;93.80
49236;DHT22;35067;48.134;8.378;2023-07-13T04:53:42;16.30;94.50
49236;DHT22;35067;48.134;8.378;2023-07-13T04:54:43;16.20;94.90
49236;DHT22;35067;48.134;8.378;2023-07-13T04:55:44;16.10;94.90
49236;DHT22;35067;48.134;8.378;2023-07-13T04:56:45;16.00;95.00
49236;DHT22;35067;48.134;8.378;2023-07-13T04:57:46;16.00;95.20
49236;DHT22;35067;48.134;8.378;2023-07-13T04:58:47;15.90;95.70
49236;DHT22;35067;48.134;8.378;2023-07-13T04:59:47;15.90;95.80
49236;DHT22;35067;48.134;8.378;2023-07-13T05:00:49;15.80;96.30
49236;DHT22;35067;48.134;8.378;2023-07-13T05:01:49;15.80;96.40
49236;DHT22;35067;48.134;8.378;2023-07-13T05:02:55;15.80;96.30
49236;DHT22;35067;48.134;8.378;2023-07-13T05:03:56;15.80;94.90
49236;DHT22;35067;48.134;8.378;2023-07-13T05:04:59;15.90;94.30
49236;DHT22;35067;48.134;8.378;2023-07-13T05:06:06;16.00;94.20
49236;DHT22;35067;48.134;8.378;2023-07-13T05:07:12;16.10;94.10
49236;DHT22;35067;48.134;8.378;2023-07-13T05:08:13;16.20;93.90
49236;DHT22;35067;48.134;8.378;2023-07-13T05:09:14;16.20;93.60
49236;DHT22;35067;48.134;8.378;2023-07-13T05:10:15;16.30;93.30
49236;DHT22;35067;48.134;8.378;2023-07-13T05:11:18;16.40;93.10
49236;DHT22;35067;48.134;8.378;2023-07-13T05:12:19;16.40;93.10
49236;DHT22;35067;48.134;8.378;2023-07-13T05:13:20;16.50;92.90
49236;DHT22;35067;48.134;8.378;2023-07-13T05:14:21;16.50;92.90
49236;DHT22;35067;48.134;8.378;2023-07-13T05:15:22;16.60;92.90
49236;DHT22;35067;48.134;8.378;2023-07-13T05:16:23;16.70;93.50
49236;DHT22;35067;48.134;8.378;2023-07-13T05:17:24;16.70;93.10
49236;DHT22;35067;48.134;8.378;2023-07-13T05:18:25;16.90;92.40
49236;DHT22;35067;48.134;8.378;2023-07-13T05:19:26;17.00;92.00
49236;DHT22;35067;48.134;8.378;2023-07-13T05:20:26;17.10;91.80
49236;DHT22;35067;48.134;8.378;2023-07-13T05:21:27;17.20;91.20
49236;DHT22;35067;48.134;8.378;2023-07-13T05:22:28;17.30;90.90
49236;DHT22;35067;48.134;8.378;2023-07-13T05:23:30;17.30;90.90
49236;DHT22;35067;48.134;8.378;2023-07-13T05:24:32;17.40;90.80
49236;DHT22;35067;48.134;8.378;2023-07-13T05:25:33;17.40;90.40
49236;DHT22;35067;48.134;8.378;2023-07-13T05:26:33;17.50;89.00
49236;DHT22;35067;48.134;8.378;2023-07-13T05:27:35;17.60;88.30
49236;DHT22;35067;48.134;8.378;2023-07-13T05:28:37;17.60;86.70
49236;DHT22;35067;48.134;8.378;2023-07-13T05:29:38;17.60;87.70
49236;DHT22;35067;48.134;8.378;2023-07-13T05:30:39;17.60;90.10
49236;DHT22;35067;48.134;8.378;2023-07-13T05:31:41;17.60;89.80
49236;DHT22;35067;48.134;8.378;2023-07-13T05:32:41;17.70;89.10
49236;DHT22;35067;48.134;8.378;2023-07-13T05:33:42;17.70;87.00
49236;DHT22;35067;48.134;8.378;2023-07-13T05:34:44;17.70;86.30
49236;DHT22;35067;48.134;8.378;2023-07-13T05:35:45;17.80;86.00
49236;DHT22;35067;48.134;8.378;2023-07-13T05:36:47;17.80;86.40
49236;DHT22;35067;48.134;8.378;2023-07-13T05:37:48;17.80;84.80
49236;DHT22;35067;48.134;8.378;2023-07-13T05:38:49;17.90;84.30
49236;DHT22;35067;48.134;8.378;2023-07-13T05:39:50;17.70;85.50
49236;DHT22;35067;48.134;8.378;2023-07-13T05:40:50;17.60;87.30
49236;DHT22;35067;48.134;8.378;2023-07-13T05:41:51;17.50;88.90
49236;DHT22;35067;48.134;8.378;2023-07-13T05:42:52;17.30;90.40
49236;DHT22;35067;48.134;8.378;2023-07-13T05:43:53;17.30;90.70
49236;DHT22;35067;48.134;8.378;2023-07-13T05:44:54;17.30;90.60
49236;DHT22;35067;48.134;8.378;2023-07-13T05:45:56;17.40;90.80
49236;DHT22;35067;48.134;8.378;2023-07-13T05:46:57;17.50;90.00
49236;DHT22;35067;48.134;8.378;2023-07-13T05:47:58;17.60;88.30
49236;DHT22;35067;48.134;8.378;2023-07-13T05:48:58;17.80;88.50
49236;DHT22;35067;48.134;8.378;2023-07-13T05:50:00;17.90;86.20
49236;DHT22;35067;48.134;8.378;2023-07-13T05:51:01;17.90;85.20
49236;DHT22;35067;48.134;8.378;2023-07-13T05:52:03;18.00;87.30
49236;DHT22;35067;48.134;8.378;2023-07-13T05:53:04;17.80;90.50
49236;DHT22;35067;48.134;8.378;2023-07-13T05:54:05;17.60;91.30
49236;DHT22;35067;48.134;8.378;2023-07-13T05:55:06;17.50;92.90
49236;DHT22;35067;48.134;8.378;2023-07-13T05:56:07;17.60;92.50
49236;DHT22;35067;48.134;8.378;2023-07-13T05:57:07;17.60;91.10
49236;DHT22;35067;48.134;8.378;2023-07-13T05:58:08;17.60;89.00
49236;DHT22;35067;48.134;8.378;2023-07-13T05:59:09;17.80;90.00
49236;DHT22;35067;48.134;8.378;2023-07-13T06:00:11;17.70;90.60
49236;DHT22;35067;48.134;8.378;2023-07-13T06:01:14;17.80;90.80
49236;DHT22;35067;48.134;8.378;2023-07-13T06:02:15;17.80;90.30
49236;DHT22;35067;48.134;8.378;2023-07-13T06:03:16;17.90;88.20
49236;DHT22;35067;48.134;8.378;2023-07-13T06:04:16;17.90;86.60
49236;DHT22;35067;48.134;8.378;2023-07-13T06:05:17;18.00;85.70
49236;DHT22;35067;48.134;8.378;2023-07-13T06:06:18;17.90;86.70
49236;DHT22;35067;48.134;8.378;2023-07-13T06:07:19;18.00;85.80
49236;DHT22;35067;48.134;8.378;2023-07-13T06:08:19;18.10;83.70
49236;DHT22;35067;48.134;8.378;2023-07-13T06:09:20;18.10;85.80
49236;DHT22;35067;48.134;8.378;2023-07-13T06:10:21;18.10;84.70
49236;DHT22;35067;48.134;8.378;2023-07-13T06:11:24;17.90;84.90
49236;DHT22;35067;48.134;8.378;2023-07-13T06:12:26;17.80;82.70
49236;DHT22;35067;48.134;8.378;2023-07-13T06:13:27;17.80;83.30
49236;DHT22;35067;48.134;8.378;2023-07-13T06:14:28;17.80;85.40
49236;DHT22;35067;48.134;8.378;2023-07-13T06:15:29;17.90;86.60
49236;DHT22;35067;48.134;8.378;2023-07-13T06:16:29;17.90;85.70
49236;DHT22;35067;48.134;8.378;2023-07-13T06:17:30;17.90;86.80
49236;DHT22;35067;48.134;8.378;2023-07-13T06:18:32;17.90;87.30
49236;DHT22;35067;48.134;8.378;2023-07-13T06:19:34;17.90;87.00
49236;DHT22;35067;48.134;8.378;2023-07-13T06:20:35;17.80;88.30
49236;DHT22;35067;48.134;8.378;2023-07-13T06:21:36;17.80;86.80
49236;DHT22;35067;48.134;8.378;2023-07-13T06:22:36;17.80;85.60
49236;DHT22;35067;48.134;8.378;2023-07-13T06:23:38;17.80;82.20
49236;DHT22;35067;48.134;8.378;2023-07-13T06:24:39;17.80;83.80
49236;DHT22;35067;48.134;8.378;2023-07-13T06:25:40;17.90;85.60
49236;DHT22;35067;48.134;8.378;2023-07-13T06:26:41;17.80;85.60
49236;DHT22;35067;48.134;8.378;2023-07-13T06:27:42;17.80;85.50
49236;DHT22;35067;48.134;8.378;2023-07-13T06:28:43;17.80;84.70
49236;DHT22;35067;48.134;8.378;2023-07-13T06:29:44;17.90;87.70
49236;DHT22;35067;48.134;8.378;2023-07-13T06:30:45;18.00;88.80